Time;durP1;ratioP1;P1;durP2;ratioP2;P2;SDS_P1;SDS_P2;PMS_P1;PMS_P2;Temp;Humidity;BMP_temperature;BMP_pressure;BME280_temperature;BME280_humidity;BME280_pressure;Samples;Min_cycle;Max_cycle;Signal;HPM_P1;HPM_P2
2022/12/18 00:01:44;;;;;;;;;72.00;52.75;;;;;-1.52;64.61;101908.19;4996399;28;45501;-75
2022/12/18 00:04:21;;;;;;;;;75.00;57.00;;;;;-0.83;65.20;102020.31;5009721;28;45558;-74
2022/12/18 00:06:46;;;;;;;;;64.25;48.00;;;;;-0.71;64.48;102029.59;4997622;28;48271;-75
2022/12/18 00:09:11;;;;;;;;;54.75;47.75;;;;;-1.37;64.75;101923.44;4985715;28;45410;-75
2022/12/18 00:11:37;;;;;;;;;67.50;53.50;;;;;-0.54;64.09;102030.00;4997340;28;45331;-76
2022/12/18 00:14:02;;;;;;;;;59.00;47.75;;;;;-0.52;64.42;102022.97;4979326;28;45597;-77
2022/12/18 00:16:29;;;;;;;;;68.00;53.25;;;;;-0.69;64.09;101986.00;4979377;28;47441;-73
2022/12/18 00:18:59;;;;;;;;;40.75;27.00;;;;;-0.55;64.41;101991.72;4983219;28;46707;-74
2022/12/18 00:21:26;;;;;;;;;67.50;51.75;;;;;-0.55;63.92;101994.31;4979526;28;45341;-74
2022/12/18 00:23:52;;;;;;;;;65.25;52.25;;;;;-0.65;64.19;101951.91;4979427;28;45397;-74
2022/12/18 00:26:25;;;;;;;;;67.00;52.75;;;;;-0.24;62.75;102027.41;4997241;28;46316;-73
2022/12/18 00:28:51;;;;;;;;;57.75;47.00;;;;;-0.45;62.72;101992.28;4997787;28;45402;-75
2022/12/18 00:31:22;;;;;;;;;65.00;53.00;;;;;-1.46;63.09;101811.50;4998800;28;45377;-75
2022/12/18 00:33:47;;;;;;;;;63.50;47.25;;;;;-0.82;63.15;101917.59;5017098;28;45263;-75
2022/12/18 00:36:21;;;;;;;;;62.00;49.75;;;;;-0.22;62.71;102010.78;5016368;28;49730;-77
2022/12/18 00:38:47;;;;;;;;;67.25;51.75;;;;;-0.23;62.06;102006.47;5004862;28;45424;-74
2022/12/18 00:42:55;;;;;;;;;66.50;51.00;;;;;-0.05;62.13;102028.59;5010387;28;45468;-76
2022/12/18 00:44:00;;;;;;;;;66.25;48.25;;;;;-0.65;61.60;101967.59;5009633;28;45448;-76
2022/12/18 00:46:25;;;;;;;;;62.75;51.00;;;;;-3.56;60.98;101490.53;4983852;28;47490;-77
2022/12/18 00:48:51;;;;;;;;;62.50;46.50;;;;;-0.34;62.13;102038.13;5011296;28;45461;-75
2022/12/18 00:51:16;;;;;;;;;62.00;48.00;;;;;-0.43;62.66;102046.22;4986904;28;45566;-74
2022/12/18 00:53:42;;;;;;;;;72.75;53.00;;;;;-0.72;62.15;101988.69;4983391;28;45541;-75
2022/12/18 00:56:07;;;;;;;;;62.50;49.25;;;;;-0.67;62.54;101994.66;5010469;28;46770;-74
2022/12/18 00:58:35;;;;;;;;;67.00;53.75;;;;;-1.47;62.63;101851.53;4981479;28;59612;-75
2022/12/18 01:01:01;;;;;;;;;65.75;48.50;;;;;-1.06;62.74;101928.69;4998128;28;45325;-75
2022/12/18 01:03:26;;;;;;;;;61.75;46.50;;;;;-0.86;61.92;101954.25;5000334;28;45515;-74
2022/12/18 01:05:51;;;;;;;;;62.50;48.75;;;;;-0.97;62.34;101937.16;4999127;28;46384;-75
2022/12/18 01:08:17;;;;;;;;;50.75;43.50;;;;;-0.55;61.93;101993.47;5001897;28;45464;-74
2022/12/18 01:10:42;;;;;;;;;64.25;49.50;;;;;-0.46;62.22;101999.28;5010696;28;45867;-76
2022/12/18 01:13:08;;;;;;;;;62.75;48.50;;;;;-0.26;61.27;102047.50;4999735;28;45413;-73
2022/12/18 01:15:33;;;;;;;;;65.25;51.00;;;;;-0.35;61.42;101999.84;5012957;28;46255;-75
2022/12/18 01:17:59;;;;;;;;;62.25;48.50;;;;;-0.42;60.90;102006.13;4999986;28;45468;-75
2022/12/18 01:20:24;;;;;;;;;64.75;51.00;;;;;-0.28;61.09;102028.41;5000094;28;53660;-75
2022/12/18 01:22:49;;;;;;;;;60.50;48.50;;;;;-0.60;61.72;101957.03;5019509;28;45511;-74
2022/12/18 01:25:15;;;;;;;;;64.50;47.00;;;;;-0.37;61.46;101983.34;5018925;28;46554;-74
2022/12/18 01:27:40;;;;;;;;;66.50;54.50;;;;;-0.37;60.93;101987.72;5019797;28;45295;-73
2022/12/18 01:30:06;;;;;;;;;69.00;51.50;;;;;-0.33;61.63;102018.94;5020597;28;45430;-74
2022/12/18 01:32:32;;;;;;;;;67.75;53.75;;;;;-1.49;61.23;101830.72;5019580;28;45432;-75
2022/12/18 01:34:57;;;;;;;;;64.50;47.50;;;;;-0.74;61.77;101956.56;5016064;28;46253;-74
2022/12/18 01:37:22;;;;;;;;;68.00;50.00;;;;;-0.65;62.07;102005.91;5001182;28;46076;-76
2022/12/18 01:39:49;;;;;;;;;63.75;52.00;;;;;-0.55;61.50;102007.38;5004788;28;45413;-72
2022/12/18 01:42:16;;;;;;;;;67.25;53.00;;;;;-1.20;61.54;101897.78;5018336;28;45186;-73
2022/12/18 01:44:56;;;;;;;;;63.00;51.25;;;;;-0.49;61.79;102017.66;5016674;28;48580;-74
2022/12/18 01:47:21;;;;;;;;;67.25;51.50;;;;;-0.50;61.55;102015.94;5017773;28;45439;-72
2022/12/18 01:49:47;;;;;;;;;67.25;51.75;;;;;-0.75;61.77;101979.19;5018905;28;45450;-74
2022/12/18 01:52:13;;;;;;;;;63.00;51.25;;;;;-0.62;62.18;102008.44;5017983;28;45519;-74
2022/12/18 01:54:38;;;;;;;;;69.25;55.00;;;;;-1.02;62.04;101931.19;5009787;28;48070;-73
2022/12/18 01:57:04;;;;;;;;;66.75;51.75;;;;;-1.34;62.07;101881.63;5014425;28;45280;-73
2022/12/18 01:59:32;;;;;;;;;67.25;52.25;;;;;-0.57;62.51;101998.72;5010375;28;45224;-73
2022/12/18 02:01:58;;;;;;;;;52.75;46.00;;;;;-1.23;61.85;101895.22;5001073;28;45444;-74
2022/12/18 02:04:26;;;;;;;;;62.75;52.25;;;;;-1.18;62.07;101919.47;5018656;28;45541;-74
2022/12/18 02:07:05;;;;;;;;;60.50;43.75;;;;;-1.56;62.55;101878.72;5014174;28;45432;-73
2022/12/18 02:09:44;;;;;;;;;66.50;52.00;;;;;-1.01;62.61;101964.22;5003758;28;45488;-75
2022/12/18 02:12:22;;;;;;;;;69.50;49.00;;;;;-1.35;62.80;101904.25;4998999;28;45528;-74
2022/12/18 02:14:54;;;;;;;;;56.50;45.75;;;;;-0.99;62.64;101978.09;4980656;28;47728;-73
2022/12/18 02:17:22;;;;;;;;;72.50;55.00;;;;;-1.09;63.41;101989.66;4996610;28;45506;-74
2022/12/18 02:20:38;;;;;;;;;68.25;52.50;;;;;-1.10;63.39;101979.25;4998716;28;45389;-75
2022/12/18 02:23:40;;;;;;;;;62.25;49.00;;;;;-1.15;63.87;101973.31;4944320;28;45502;-72
2022/12/18 02:26:18;;;;;;;;;67.50;52.75;;;;;-1.24;63.51;101971.78;4999381;28;45512;-74
2022/12/18 02:28:52;;;;;;;;;68.25;52.75;;;;;-1.31;63.51;101972.84;5011949;28;45397;-74
2022/12/18 02:31:25;;;;;;;;;68.00;54.50;;;;;-1.62;63.73;101897.97;4997480;28;45239;-76
2022/12/18 02:33:57;;;;;;;;;65.25;52.25;;;;;-2.53;64.60;101749.09;5013662;28;45336;-75
2022/12/18 02:36:25;;;;;;;;;59.25;49.75;;;;;-1.72;64.10;101888.66;5016907;28;45602;-74
2022/12/18 02:38:53;;;;;;;;;63.25;52.50;;;;;-1.33;64.35;101951.16;5016328;28;45558;-74
2022/12/18 02:41:19;;;;;;;;;65.00;46.00;;;;;-1.57;64.36;101927.41;4987214;28;45456;-75
2022/12/18 02:43:56;;;;;;;;;64.00;51.50;;;;;-1.96;64.62;101866.66;5012646;28;45538;-73
2022/12/18 02:46:32;;;;;;;;;56.75;48.00;;;;;-1.33;64.17;101958.97;4981034;28;47208;-75
2022/12/18 02:49:29;;;;;;;;;55.50;43.50;;;;;-1.40;64.35;101944.34;4996687;28;45644;-74
2022/12/18 02:52:22;;;;;;;;;58.75;44.50;;;;;-1.43;64.45;101947.06;4983797;28;45382;-75
2022/12/18 02:54:55;;;;;;;;;64.75;52.25;;;;;-1.81;64.62;101891.47;5007719;28;45421;-75
2022/12/18 02:57:48;;;;;;;;;66.25;54.00;;;;;-1.53;65.31;101943.81;4998105;28;48626;-71
2022/12/18 03:00:42;;;;;;;;;65.75;50.75;;;;;-1.53;64.68;101933.41;4988072;28;45259;-74
2022/12/18 03:03:18;;;;;;;;;69.75;54.75;;;;;-1.45;64.75;101933.19;5005579;28;45453;-76
2022/12/18 03:06:00;;;;;;;;;64.75;48.75;;;;;-3.78;64.29;101555.13;5001649;28;45614;-74
2022/12/18 03:08:28;;;;;;;;;68.00;51.50;;;;;-1.55;64.98;101936.03;4990454;28;47876;-75
2022/12/18 03:11:01;;;;;;;;;63.50;53.50;;;;;-1.64;65.44;101936.25;5008227;28;45230;-77
2022/12/18 03:13:50;;;;;;;;;66.75;51.25;;;;;-2.78;65.65;101749.66;5012572;28;45431;-75
2022/12/18 03:16:25;;;;;;;;;73.50;56.00;;;;;-2.04;65.58;101883.34;4998617;28;45773;-74
2022/12/18 03:19:12;;;;;;;;;66.25;51.50;;;;;-2.01;65.67;101867.66;5004709;28;46552;-74
2022/12/18 03:21:44;;;;;;;;;58.25;49.75;;;;;-1.95;65.54;101904.00;5015087;28;45463;-73
2022/12/18 03:24:11;;;;;;;;;33.25;33.25;;;;;-1.87;65.24;101912.50;5003794;28;45489;-74
2022/12/18 03:26:46;;;;;;;;;64.25;47.75;;;;;-2.72;65.61;101761.66;5004458;28;45310;-73
2022/12/18 03:29:22;;;;;;;;;80.00;60.25;;;;;-1.67;66.33;101951.13;5009820;28;48800;-72
2022/12/18 03:31:53;;;;;;;;;58.50;50.50;;;;;-1.77;66.03;101921.81;4989833;28;45471;-74
2022/12/18 03:34:24;;;;;;;;;66.75;51.25;;;;;-1.84;64.86;101895.03;5000521;28;45271;-72
2022/12/18 03:36:50;;;;;;;;;63.75;50.00;;;;;-1.70;65.01;101910.34;4999046;28;45476;-73
2022/12/18 03:39:15;;;;;;;;;65.25;53.00;;;;;-1.49;65.40;101950.69;5002998;28;46512;-72
2022/12/18 03:41:52;;;;;;;;;60.00;46.50;;;;;-1.87;64.54;101878.59;4994073;28;45907;-76
2022/12/18 03:44:26;;;;;;;;;62.25;51.25;;;;;-1.57;65.35;101909.16;4994794;28;45542;-74
2022/12/18 03:47:10;;;;;;;;;67.75;50.25;;;;;-1.26;64.77;101944.88;4996412;28;45431;-74
2022/12/18 03:49:46;;;;;;;;;68.25;53.25;;;;;-1.17;63.98;101952.47;5008188;28;45788;-71
2022/12/18 03:52:36;;;;;;;;;50.75;44.50;;;;;-1.41;64.39;101920.03;4985015;28;45531;-73
2022/12/18 03:55:04;;;;;;;;;67.00;46.75;;;;;-1.54;64.53;101885.59;5014870;28;45503;-74
2022/12/18 03:57:32;;;;;;;;;71.00;52.25;;;;;-1.36;64.44;101926.00;5011740;28;45285;-74
2022/12/18 04:00:03;;;;;;;;;64.75;50.00;;;;;-1.31;64.98;101929.34;4987706;28;48093;-73
2022/12/18 04:02:31;;;;;;;;;65.75;51.75;;;;;-1.98;64.26;101805.91;4987994;28;46207;-70
2022/12/18 04:05:01;;;;;;;;;67.50;53.00;;;;;-2.26;64.72;101763.19;4997703;28;45579;-72
2022/12/18 04:07:27;;;;;;;;;65.00;53.50;;;;;-1.71;65.10;101877.34;5004309;28;45428;-73
2022/12/18 04:09:56;;;;;;;;;68.25;50.50;;;;;-1.70;65.22;101884.28;5012817;28;47761;-73
2022/12/18 04:12:28;;;;;;;;;65.00;49.00;;;;;-1.64;64.61;101862.38;5011201;28;45426;-73
2022/12/18 04:14:54;;;;;;;;;64.00;45.25;;;;;-1.37;64.92;101882.56;4998318;28;45420;-74
2022/12/18 04:17:20;;;;;;;;;69.25;53.75;;;;;-1.19;64.27;101899.50;5004718;28;45541;-74
2022/12/18 04:19:45;;;;;;;;;60.00;48.50;;;;;-1.37;64.60;101853.00;4985232;28;48616;-72
2022/12/18 04:22:10;;;;;;;;;59.00;48.00;;;;;-1.19;63.60;101875.16;4999961;28;45520;-75
2022/12/18 04:24:36;;;;;;;;;61.75;46.50;;;;;-1.12;63.67;101885.38;5008394;28;45936;-73
2022/12/18 04:27:01;;;;;;;;;61.00;47.50;;;;;-1.03;63.18;101905.13;5000201;28;45467;-74
2022/12/18 04:29:27;;;;;;;;;65.25;50.25;;;;;-1.07;64.32;101903.50;5000091;28;46970;-75
2022/12/18 04:31:52;;;;;;;;;63.75;49.00;;;;;-1.03;64.13;101911.19;4982852;28;45410;-74
2022/12/18 04:34:17;;;;;;;;;68.75;52.00;;;;;-1.26;63.47;101857.03;5018552;28;45526;-73
2022/12/18 04:36:43;;;;;;;;;61.75;50.50;;;;;-1.29;63.48;101853.66;5019532;28;45326;-72
2022/12/18 04:39:08;;;;;;;;;57.50;43.75;;;;;-1.19;63.75;101872.53;5015342;28;46788;-73
2022/12/18 04:41:33;;;;;;;;;65.25;51.25;;;;;-1.99;63.64;101719.97;5003336;28;45313;-71
2022/12/18 04:43:59;;;;;;;;;69.00;50.00;;;;;-1.25;63.32;101870.94;5006726;28;45357;-73
2022/12/18 04:46:24;;;;;;;;;62.50;46.50;;;;;-1.04;63.29;101925.16;4993311;28;52471;-75
2022/12/18 04:48:49;;;;;;;;;57.00;48.50;;;;;-1.79;64.37;101816.72;5005429;28;45866;-72
2022/12/18 04:51:15;;;;;;;;;61.75;44.50;;;;;-1.20;63.84;101921.25;5006127;28;45448;-71
2022/12/18 04:53:40;;;;;;;;;69.75;49.75;;;;;-1.48;64.75;101857.66;4989067;28;45278;-72
2022/12/18 04:56:12;;;;;;;;;62.25;50.75;;;;;-1.25;64.17;101904.84;5006523;28;45378;-73
2022/12/18 04:58:39;;;;;;;;;65.00;49.25;;;;;-1.31;63.77;101884.16;5010826;28;45544;-73
2022/12/18 05:01:05;;;;;;;;;50.00;46.00;;;;;-1.17;64.25;101918.56;5007088;28;45498;-73
2022/12/18 05:03:31;;;;;;;;;69.50;52.25;;;;;-1.29;64.10;101900.59;5004836;28;45509;-73
2022/12/18 05:05:57;;;;;;;;;63.75;50.25;;;;;-1.20;64.43;101912.53;4999877;28;45264;-73
2022/12/18 05:08:22;;;;;;;;;66.50;48.00;;;;;-1.79;63.91;101816.72;5003361;28;45443;-70
2022/12/18 05:10:47;;;;;;;;;59.50;48.75;;;;;-1.31;64.43;101912.84;5012284;28;45448;-71
2022/12/18 05:13:13;;;;;;;;;68.00;50.00;;;;;-1.32;64.87;101908.53;5002837;28;45949;-73
2022/12/18 05:15:38;;;;;;;;;66.25;47.50;;;;;-1.70;64.40;101855.59;5013591;28;45449;-74
2022/12/18 05:18:04;;;;;;;;;58.50;48.75;;;;;-1.23;65.05;101934.34;4998993;28;55781;-75
2022/12/18 05:20:30;;;;;;;;;69.00;51.25;;;;;-1.37;65.13;101903.44;5008647;28;45460;-74
2022/12/18 05:22:56;;;;;;;;;68.25;52.50;;;;;-1.62;64.60;101853.63;4992675;28;45504;-74
2022/12/18 05:25:22;;;;;;;;;68.00;50.50;;;;;-1.15;63.71;101931.56;5006840;28;45544;-73
2022/12/18 05:27:48;;;;;;;;;61.25;48.00;;;;;-1.99;64.09;101782.50;4991351;28;48606;-73
2022/12/18 05:30:14;;;;;;;;;63.25;51.75;;;;;-2.20;64.09;101743.06;5009349;28;45506;-73
2022/12/18 05:32:40;;;;;;;;;68.50;49.50;;;;;-1.24;63.55;101910.03;4997838;28;46084;-70
2022/12/18 05:35:06;;;;;;;;;54.75;47.50;;;;;-2.01;64.21;101774.69;5006997;28;45168;-71
2022/12/18 05:37:32;;;;;;;;;56.75;45.00;;;;;-1.31;63.97;101892.81;5000034;28;46672;-75
2022/12/18 05:39:57;;;;;;;;;68.50;50.75;;;;;-1.06;63.86;101924.34;5005138;28;45479;-72
2022/12/18 05:42:23;;;;;;;;;48.50;45.00;;;;;-0.98;63.25;101956.31;4997625;28;45439;-72
2022/12/18 05:44:48;;;;;;;;;65.25;50.75;;;;;-1.25;63.18;101921.34;5001364;28;45458;-75
2022/12/18 05:47:14;;;;;;;;;64.25;48.75;;;;;-2.16;63.49;101744.69;4983227;28;46511;-74
2022/12/18 05:49:39;;;;;;;;;60.75;50.50;;;;;-1.43;63.37;101863.59;5014240;28;45348;-73
2022/12/18 05:52:04;;;;;;;;;63.75;49.50;;;;;-1.74;63.80;101861.78;4981068;28;45539;-73
2022/12/18 05:54:30;;;;;;;;;63.75;44.50;;;;;-1.11;64.24;101944.50;4988737;28;50291;-72
2022/12/18 05:56:56;;;;;;;;;64.25;48.50;;;;;-1.08;63.83;101936.56;5007730;28;46651;-74
2022/12/18 05:59:21;;;;;;;;;68.25;50.75;;;;;-1.23;63.58;101916.09;5006863;28;45404;-73
2022/12/18 06:01:47;;;;;;;;;68.50;51.75;;;;;-1.46;64.35;101869.75;4992345;28;45658;-72
2022/12/18 06:04:12;;;;;;;;;70.50;53.25;;;;;-1.37;63.60;101881.72;5000088;28;45494;-74
2022/12/18 06:06:38;;;;;;;;;48.25;43.00;;;;;-1.19;63.84;101925.56;5012670;28;46161;-73
2022/12/18 06:09:09;;;;;;;;;61.00;50.00;;;;;-1.81;63.55;101815.88;5000130;28;45530;-73
2022/12/18 06:11:38;;;;;;;;;63.75;47.50;;;;;-1.18;64.29;101900.34;5009141;28;45554;-73
2022/12/18 06:14:05;;;;;;;;;68.25;50.00;;;;;-1.18;63.82;101905.56;4998542;28;45240;-77
2022/12/18 06:16:31;;;;;;;;;66.50;52.00;;;;;-1.25;64.05;101899.63;4997861;28;45419;-72
2022/12/18 06:18:58;;;;;;;;;55.75;47.75;;;;;-2.38;64.20;101701.84;5002711;28;45498;-75
2022/12/18 06:21:23;;;;;;;;;60.25;51.50;;;;;-1.08;63.55;101907.88;4996322;28;45586;-75
2022/12/18 06:23:49;;;;;;;;;61.00;48.50;;;;;-1.83;63.02;101782.03;5008588;28;45337;-73
2022/12/18 06:26:15;;;;;;;;;62.50;47.50;;;;;-4.63;63.60;101344.94;5009956;28;45255;-72
2022/12/18 06:28:41;;;;;;;;;59.50;48.00;;;;;-2.11;63.60;101741.13;5007446;28;45808;-75
2022/12/18 06:31:08;;;;;;;;;63.50;50.25;;;;;-1.19;63.59;101907.31;4993469;28;45353;-72
2022/12/18 06:33:35;;;;;;;;;59.50;49.75;;;;;-1.19;63.77;101902.09;4996321;28;45278;-74
2022/12/18 06:36:04;;;;;;;;;46.00;40.50;;;;;-4.06;63.73;101419.81;4997878;28;45697;-74
2022/12/18 06:38:32;;;;;;;;;55.25;44.00;;;;;-1.58;63.62;101851.81;4980016;28;45370;-74
2022/12/18 06:40:57;;;;;;;;;62.75;49.25;;;;;-1.97;64.13;101796.34;5005184;28;45480;-73
2022/12/18 06:43:23;;;;;;;;;56.00;47.75;;;;;-1.78;64.09;101828.00;5008581;28;45300;-73
2022/12/18 06:45:52;;;;;;;;;56.75;47.75;;;;;-1.34;64.41;101902.50;5002320;28;46059;-74
2022/12/18 06:48:19;;;;;;;;;63.75;50.75;;;;;-1.51;63.92;101873.38;4984790;28;45316;-74
2022/12/18 06:50:44;;;;;;;;;69.00;51.50;;;;;-1.64;63.67;101873.69;4998531;28;45266;-73
2022/12/18 06:53:10;;;;;;;;;66.00;49.50;;;;;-1.42;63.99;101894.00;4979876;28;45448;-73
2022/12/18 06:55:35;;;;;;;;;60.50;46.75;;;;;-1.52;64.20;101864.69;4999210;28;46185;-75
2022/12/18 06:58:00;;;;;;;;;65.75;47.50;;;;;-1.35;64.07;101911.22;4986713;28;45469;-73
2022/12/18 07:00:26;;;;;;;;;57.00;44.75;;;;;-2.19;63.69;101749.13;5004067;28;52133;-72
2022/12/18 07:02:51;;;;;;;;;63.00;48.75;;;;;-1.46;63.38;101858.47;4998740;28;45198;-71
2022/12/18 07:05:16;;;;;;;;;58.25;45.25;;;;;-1.35;63.92;101879.91;5009371;28;46981;-74
2022/12/18 07:07:42;;;;;;;;;56.25;48.00;;;;;-1.62;63.69;101835.38;4982432;28;54415;-74
2022/12/18 07:10:07;;;;;;;;;64.75;51.25;;;;;-1.67;63.64;101837.25;4989341;28;45507;-73
2022/12/18 07:12:33;;;;;;;;;66.50;50.25;;;;;-1.51;64.29;101891.63;4998130;28;45421;-74
2022/12/18 07:14:58;;;;;;;;;65.25;48.75;;;;;-1.76;63.88;101847.06;5008950;28;45864;-73
2022/12/18 07:17:23;;;;;;;;;67.00;50.25;;;;;-1.55;64.03;101889.09;5011381;28;45615;-73
2022/12/18 07:19:49;;;;;;;;;57.75;47.25;;;;;-2.87;63.94;101650.97;5001037;28;45861;-73
2022/12/18 07:22:14;;;;;;;;;67.00;49.75;;;;;-1.58;64.80;101890.94;4997505;28;45243;-71
2022/12/18 07:24:39;;;;;;;;;63.50;49.00;;;;;-1.58;64.45;101857.91;5005189;28;46537;-72
2022/12/18 07:27:05;;;;;;;;;54.25;45.25;;;;;-1.56;63.94;101863.94;5005409;28;45222;-74
2022/12/18 07:29:30;;;;;;;;;66.50;50.50;;;;;-1.56;64.33;101844.81;4987871;28;45474;-76
2022/12/18 07:31:56;;;;;;;;;66.50;51.75;;;;;-2.37;63.60;101689.69;4986320;28;45604;-73
2022/12/18 07:34:21;;;;;;;;;65.25;51.25;;;;;-2.03;63.67;101742.63;4997592;28;47036;-75
2022/12/18 07:36:46;;;;;;;;;67.25;50.00;;;;;-1.30;62.70;101868.44;4992635;28;45402;-72
2022/12/18 07:39:12;;;;;;;;;62.50;48.50;;;;;-1.52;63.48;101845.59;4995000;28;45295;-73
2022/12/18 07:41:38;;;;;;;;;62.00;46.50;;;;;-1.32;63.69;101882.44;5011586;28;45365;-74
2022/12/18 07:44:03;;;;;;;;;61.25;48.25;;;;;-1.39;63.36;101873.06;4990543;28;48054;-73
2022/12/18 07:46:29;;;;;;;;;59.50;49.00;;;;;-1.25;63.09;101904.84;4997102;28;45360;-72
2022/12/18 07:48:54;;;;;;;;;64.75;49.50;;;;;-1.49;63.57;101868.97;5003730;28;52501;-73
2022/12/18 07:51:19;;;;;;;;;56.50;46.00;;;;;-1.16;62.74;101937.69;5004912;28;45652;-71
2022/12/18 07:53:45;;;;;;;;;71.50;52.50;;;;;-1.40;62.52;101873.94;5008496;28;45325;-72
2022/12/18 07:56:12;;;;;;;;;65.50;49.00;;;;;-1.85;63.35;101815.13;5003452;28;45483;-74
2022/12/18 07:58:37;;;;;;;;;62.25;49.00;;;;;-1.48;63.75;101891.53;4997412;28;45339;-74
2022/12/18 08:01:07;;;;;;;;;65.25;48.75;;;;;-1.31;63.14;101908.47;5002864;28;45235;-73
2022/12/18 08:03:34;;;;;;;;;69.50;49.75;;;;;-1.29;62.94;101895.38;5010715;28;48983;-70
2022/12/18 08:06:04;;;;;;;;;66.75;49.25;;;;;-1.72;63.71;101802.63;5009929;28;45460;-73
2022/12/18 08:08:30;;;;;;;;;61.75;48.50;;;;;-1.25;62.48;101868.31;5004030;28;45670;-70
2022/12/18 08:10:57;;;;;;;;;54.75;46.75;;;;;-1.55;62.93;101818.69;4994819;28;45534;-70
2022/12/18 08:13:23;;;;;;;;;61.25;46.75;;;;;-1.42;62.11;101831.38;4984111;28;48488;-70
2022/12/18 08:16:00;;;;;;;;;61.75;47.50;;;;;-1.19;62.31;101890.81;5002258;28;45562;-71
2022/12/18 08:18:25;;;;;;;;;64.75;47.00;;;;;-1.36;62.40;101879.06;5010245;28;45467;-70
2022/12/18 08:20:50;;;;;;;;;62.75;49.75;;;;;-1.30;63.11;101893.69;4995593;28;46677;-71
2022/12/18 08:23:16;;;;;;;;;72.00;53.75;;;;;-1.24;62.87;101899.59;5012162;28;45591;-72
2022/12/18 08:25:41;;;;;;;;;59.25;47.75;;;;;-1.72;62.27;101792.22;4993328;28;45565;-70
2022/12/18 08:28:06;;;;;;;;;62.75;50.25;;;;;-1.32;62.04;101866.78;5007703;28;45250;-71
2022/12/18 08:30:32;;;;;;;;;60.00;47.00;;;;;-1.67;62.39;101800.75;4985413;28;45584;-69
2022/12/18 08:32:57;;;;;;;;;65.25;47.25;;;;;-1.57;61.87;101817.03;5003330;28;46177;-70
2022/12/18 08:35:23;;;;;;;;;63.25;47.25;;;;;-1.39;62.07;101839.16;5004629;28;45306;-72
2022/12/18 08:37:48;;;;;;;;;63.00;46.25;;;;;-1.15;62.17;101876.78;4996915;28;45484;-69
2022/12/18 08:40:14;;;;;;;;;60.25;49.25;;;;;-0.84;61.48;101914.16;5006875;28;45286;-73
2022/12/18 08:45:24;;;;;;;;;54.00;44.25;;;;;-0.65;61.42;101894.47;4996923;28;45472;-70
2022/12/18 08:47:49;;;;;;;;;57.75;45.75;;;;;-0.76;61.07;101870.44;4996416;28;45507;-70
2022/12/18 08:50:15;;;;;;;;;51.50;45.50;;;;;-0.42;60.18;101900.75;5005539;28;45394;-69
2022/12/18 08:52:40;;;;;;;;;60.50;47.00;;;;;-0.24;60.08;101917.66;5006954;28;46440;-71
2022/12/18 08:55:06;;;;;;;;;62.25;48.75;;;;;-0.15;60.37;101918.25;5008397;28;46598;-71
2022/12/18 08:57:32;;;;;;;;;64.00;44.25;;;;;-0.10;59.77;101915.47;4978993;28;45232;-68
2022/12/18 08:59:57;;;;;;;;;57.25;46.25;;;;;-0.75;59.59;101824.28;5002543;28;46155;-70
2022/12/18 09:02:22;;;;;;;;;63.75;49.75;;;;;0.07;59.31;101923.66;4998804;28;46314;-71
2022/12/18 09:04:48;;;;;;;;;67.75;48.00;;;;;-0.69;58.47;101784.94;4997594;28;45205;-71
2022/12/18 09:07:14;;;;;;;;;70.25;52.75;;;;;0.22;58.73;101920.56;5014870;28;45373;-71
2022/12/18 09:09:39;;;;;;;;;54.75;46.25;;;;;-0.21;58.68;101849.59;5001000;28;45525;-70
2022/12/18 09:12:04;;;;;;;;;55.50;40.25;;;;;0.19;58.72;101884.03;4999491;28;46367;-71
2022/12/18 09:14:30;;;;;;;;;62.75;49.00;;;;;0.37;58.15;101906.13;4999332;28;45483;-70
2022/12/18 09:16:55;;;;;;;;;61.50;48.25;;;;;0.26;57.78;101905.63;4992796;28;45369;-73
2022/12/18 09:19:21;;;;;;;;;60.75;51.00;;;;;-0.01;57.83;101882.06;5010858;28;45328;-71
2022/12/18 09:21:46;;;;;;;;;61.00;45.00;;;;;-0.16;58.54;101866.03;5015208;28;47315;-71
2022/12/18 09:24:13;;;;;;;;;53.75;45.25;;;;;0.17;58.81;101922.44;5007635;28;45345;-71
2022/12/18 09:26:39;;;;;;;;;68.25;53.50;;;;;0.08;58.10;101912.28;5007696;28;45531;-71
2022/12/18 09:29:06;;;;;;;;;61.75;47.25;;;;;-0.40;58.60;101854.53;5018814;28;45428;-69
2022/12/18 09:31:32;;;;;;;;;63.00;49.50;;;;;-0.02;59.03;101916.09;4993897;28;47671;-69
2022/12/18 09:33:58;;;;;;;;;59.00;44.00;;;;;-0.06;59.37;101911.88;5009149;28;45295;-71
2022/12/18 09:36:23;;;;;;;;;43.00;37.00;;;;;-0.09;59.47;101906.72;5000533;28;45408;-72
2022/12/18 09:38:49;;;;;;;;;43.50;38.50;;;;;-0.02;59.59;101906.47;5006248;28;45470;-70
2022/12/18 09:41:23;;;;;;;;;63.75;45.50;;;;;0.03;58.87;101901.13;4981123;28;47841;-70
2022/12/18 09:43:53;;;;;;;;;62.25;50.00;;;;;-0.08;59.17;101895.38;4999252;28;45518;-70
2022/12/18 09:46:27;;;;;;;;;63.50;45.75;;;;;-0.30;59.43;101850.75;5014594;28;45567;-69
2022/12/18 09:48:56;;;;;;;;;64.25;52.25;;;;;0.12;59.38;101908.69;5005792;28;45374;-72
2022/12/18 09:51:32;;;;;;;;;63.25;48.25;;;;;-1.49;59.41;101653.38;5017602;28;45748;-70
2022/12/18 09:54:03;;;;;;;;;69.75;50.75;;;;;-0.11;59.78;101891.09;5018357;28;45304;-71
2022/12/18 09:56:35;;;;;;;;;68.00;51.00;;;;;-0.12;59.01;101885.94;5018541;28;45273;-71
2022/12/18 09:59:02;;;;;;;;;45.75;39.50;;;;;0.07;59.05;101894.91;5017915;28;45558;-70
2022/12/18 10:01:29;;;;;;;;;57.75;46.50;;;;;-0.53;59.71;101812.28;5015866;28;47015;-71
2022/12/18 10:03:55;;;;;;;;;64.25;50.75;;;;;-0.71;59.48;101776.28;5005238;28;45422;-71
2022/12/18 10:06:50;;;;;;;;;62.25;48.50;;;;;-0.27;59.30;101832.38;5014411;28;45444;-74
2022/12/18 10:09:25;;;;;;;;;61.50;48.50;;;;;0.14;59.29;101900.78;5014351;28;45319;-71
2022/12/18 10:12:09;;;;;;;;;57.25;47.00;;;;;-0.43;59.37;101787.56;5016229;28;45468;-69
2022/12/18 10:14:49;;;;;;;;;62.50;48.25;;;;;0.17;59.34;101891.06;4984287;28;45503;-70
2022/12/18 10:17:40;;;;;;;;;63.50;46.50;;;;;0.25;59.44;101898.69;5002425;28;45696;-69
2022/12/18 10:20:47;;;;;;;;;62.50;50.25;;;;;0.20;59.70;101850.88;4997537;28;45276;-69
2022/12/18 10:23:15;;;;;;;;;62.25;47.75;;;;;0.60;58.86;101889.63;4976427;28;45466;-69
2022/12/18 10:25:55;;;;;;;;;63.00;46.00;;;;;0.73;58.82;101885.69;4998602;28;45440;-71
2022/12/18 10:28:22;;;;;;;;;67.75;50.25;;;;;0.56;57.40;101814.78;5002692;28;45449;-71
2022/12/18 10:30:47;;;;;;;;;63.00;46.50;;;;;0.40;58.41;101818.81;4991934;28;45547;-71
2022/12/18 10:33:16;;;;;;;;;47.25;41.75;;;;;0.48;58.36;101840.38;5009805;28;46534;-71
2022/12/18 10:35:44;;;;;;;;;64.00;50.50;;;;;0.36;58.34;101817.22;5017702;28;45499;-72
2022/12/18 10:38:12;;;;;;;;;62.00;48.50;;;;;0.77;58.19;101875.97;4989236;28;46381;-69
2022/12/18 10:41:13;;;;;;;;;59.00;47.75;;;;;0.87;58.29;101866.91;5012173;28;45203;-70
2022/12/18 10:43:40;;;;;;;;;61.25;49.25;;;;;0.98;58.49;101864.75;4997941;28;45531;-70
2022/12/18 10:46:08;;;;;;;;;60.00;46.75;;;;;1.10;58.29;101873.94;5005794;28;45286;-71
2022/12/18 10:48:47;;;;;;;;;52.25;43.00;;;;;1.08;57.76;101867.91;4982455;28;45282;-71
2022/12/18 10:51:22;;;;;;;;;68.25;52.25;;;;;0.97;58.15;101841.22;5005673;28;45450;-71
2022/12/18 10:53:57;;;;;;;;;66.00;50.25;;;;;1.17;57.75;101862.31;4996570;28;45824;-72
2022/12/18 10:56:25;;;;;;;;;63.00;50.75;;;;;0.05;57.76;101671.03;5006345;28;45447;-70
2022/12/18 10:59:03;;;;;;;;;60.75;48.00;;;;;1.16;58.08;101843.13;4998182;28;45412;-74
2022/12/18 11:01:46;;;;;;;;;66.25;50.00;;;;;1.18;57.56;101864.00;5006109;28;45583;-71
2022/12/18 11:04:17;;;;;;;;;61.75;47.50;;;;;0.78;57.64;101771.22;5001639;28;45655;-73
2022/12/18 11:06:57;;;;;;;;;67.75;53.50;;;;;1.10;57.50;101819.78;4996865;28;45409;-72
2022/12/18 11:09:27;;;;;;;;;65.00;52.25;;;;;1.28;57.65;101841.81;5013126;28;45385;-72
2022/12/18 11:11:56;;;;;;;;;69.50;53.50;;;;;0.80;57.41;101756.34;4988056;28;45579;-73
2022/12/18 11:14:32;;;;;;;;;55.50;45.75;;;;;0.62;57.83;101709.91;4998821;28;45657;-73
2022/12/18 11:16:59;;;;;;;;;67.25;52.00;;;;;1.15;57.77;101799.50;4995885;28;45463;-71
2022/12/18 11:19:31;;;;;;;;;64.25;48.75;;;;;1.02;58.08;101753.75;5013920;28;45296;-71
2022/12/18 11:21:57;;;;;;;;;61.75;49.50;;;;;1.45;57.44;101831.56;4999116;28;45539;-71